sensor_id;sensor_type;location;lat;lon;timestamp;temperature;humidity
74364;DHT22;62797;49.740;10.154;2024-02-15T00:01:52;10.20;85.10
74364;DHT22;62797;49.740;10.154;2024-02-15T00:04:23;10.20;84.90
74364;DHT22;62797;49.740;10.154;2024-02-15T00:06:56;10.20;84.60
74364;DHT22;62797;49.740;10.154;2024-02-15T00:09:28;10.20;84.90
74364;DHT22;62797;49.740;10.154;2024-02-15T00:12:00;10.20;85.20
74364;DHT22;62797;49.740;10.154;2024-02-15T00:14:32;10.20;84.90
74364;DHT22;62797;49.740;10.154;2024-02-15T00:17:05;10.20;84.60
74364;DHT22;62797;49.740;10.154;2024-02-15T00:19:44;10.20;85.10
74364;DHT22;62797;49.740;10.154;2024-02-15T00:22:16;10.20;85.10
74364;DHT22;62797;49.740;10.154;2024-02-15T00:24:48;10.10;85.00
74364;DHT22;62797;49.740;10.154;2024-02-15T00:27:23;10.10;85.40
74364;DHT22;62797;49.740;10.154;2024-02-15T00:29:56;10.20;85.10
74364;DHT22;62797;49.740;10.154;2024-02-15T00:32:27;10.20;85.50
74364;DHT22;62797;49.740;10.154;2024-02-15T00:35:00;10.20;85.30
74364;DHT22;62797;49.740;10.154;2024-02-15T00:37:31;10.20;85.40
74364;DHT22;62797;49.740;10.154;2024-02-15T00:40:04;10.20;85.30
74364;DHT22;62797;49.740;10.154;2024-02-15T00:42:37;10.10;85.30
74364;DHT22;62797;49.740;10.154;2024-02-15T00:45:09;10.10;85.50
74364;DHT22;62797;49.740;10.154;2024-02-15T00:47:42;10.10;85.80
74364;DHT22;62797;49.740;10.154;2024-02-15T00:50:13;10.20;85.40
74364;DHT22;62797;49.740;10.154;2024-02-15T00:52:45;10.20;85.40
74364;DHT22;62797;49.740;10.154;2024-02-15T00:55:18;10.10;85.00
74364;DHT22;62797;49.740;10.154;2024-02-15T00:57:50;10.10;85.30
74364;DHT22;62797;49.740;10.154;2024-02-15T01:00:23;10.00;85.20
74364;DHT22;62797;49.740;10.154;2024-02-15T01:02:56;10.00;85.50
74364;DHT22;62797;49.740;10.154;2024-02-15T01:05:28;9.90;85.80
74364;DHT22;62797;49.740;10.154;2024-02-15T01:08:00;9.80;86.20
74364;DHT22;62797;49.740;10.154;2024-02-15T01:10:33;9.80;86.10
74364;DHT22;62797;49.740;10.154;2024-02-15T01:13:05;9.80;85.80
74364;DHT22;62797;49.740;10.154;2024-02-15T01:15:38;9.70;85.70
74364;DHT22;62797;49.740;10.154;2024-02-15T01:18:19;9.70;85.60
74364;DHT22;62797;49.740;10.154;2024-02-15T01:20:51;9.70;86.10
74364;DHT22;62797;49.740;10.154;2024-02-15T01:23:24;9.60;86.10
74364;DHT22;62797;49.740;10.154;2024-02-15T01:25:57;9.60;85.90
74364;DHT22;62797;49.740;10.154;2024-02-15T01:28:30;9.60;85.60
74364;DHT22;62797;49.740;10.154;2024-02-15T01:31:02;9.50;85.60
74364;DHT22;62797;49.740;10.154;2024-02-15T01:33:34;9.40;85.70
74364;DHT22;62797;49.740;10.154;2024-02-15T01:36:06;9.40;85.90
74364;DHT22;62797;49.740;10.154;2024-02-15T01:38:38;9.40;85.30
74364;DHT22;62797;49.740;10.154;2024-02-15T01:41:11;9.40;85.70
74364;DHT22;62797;49.740;10.154;2024-02-15T01:43:46;9.30;85.60
74364;DHT22;62797;49.740;10.154;2024-02-15T01:46:21;9.30;85.90
74364;DHT22;62797;49.740;10.154;2024-02-15T01:48:54;9.20;85.70
74364;DHT22;62797;49.740;10.154;2024-02-15T01:51:28;9.20;85.90
74364;DHT22;62797;49.740;10.154;2024-02-15T01:54:01;9.10;86.00
74364;DHT22;62797;49.740;10.154;2024-02-15T01:56:34;9.10;86.00
74364;DHT22;62797;49.740;10.154;2024-02-15T01:59:06;9.10;85.90
74364;DHT22;62797;49.740;10.154;2024-02-15T02:01:39;9.10;85.50
74364;DHT22;62797;49.740;10.154;2024-02-15T02:04:10;9.00;85.50
74364;DHT22;62797;49.740;10.154;2024-02-15T02:06:42;8.90;85.50
74364;DHT22;62797;49.740;10.154;2024-02-15T02:09:15;8.90;85.90
74364;DHT22;62797;49.740;10.154;2024-02-15T02:11:47;8.80;85.80
74364;DHT22;62797;49.740;10.154;2024-02-15T02:14:21;8.80;86.00
74364;DHT22;62797;49.740;10.154;2024-02-15T02:16:54;8.90;86.30
74364;DHT22;62797;49.740;10.154;2024-02-15T02:19:32;8.90;86.50
74364;DHT22;62797;49.740;10.154;2024-02-15T02:22:05;9.00;86.40
74364;DHT22;62797;49.740;10.154;2024-02-15T02:24:58;9.00;86.80
74364;DHT22;62797;49.740;10.154;2024-02-15T02:27:32;9.20;87.30
74364;DHT22;62797;49.740;10.154;2024-02-15T02:30:11;9.30;87.50
74364;DHT22;62797;49.740;10.154;2024-02-15T02:32:47;9.30;87.30
74364;DHT22;62797;49.740;10.154;2024-02-15T02:35:20;9.40;87.30
74364;DHT22;62797;49.740;10.154;2024-02-15T02:37:52;9.40;87.10
74364;DHT22;62797;49.740;10.154;2024-02-15T02:40:24;9.40;87.10
74364;DHT22;62797;49.740;10.154;2024-02-15T02:42:57;9.50;87.20
74364;DHT22;62797;49.740;10.154;2024-02-15T02:45:32;9.50;87.20
74364;DHT22;62797;49.740;10.154;2024-02-15T02:48:05;9.50;87.00
74364;DHT22;62797;49.740;10.154;2024-02-15T02:50:38;9.50;86.80
74364;DHT22;62797;49.740;10.154;2024-02-15T02:53:09;9.40;86.60
74364;DHT22;62797;49.740;10.154;2024-02-15T02:55:43;9.40;86.70
74364;DHT22;62797;49.740;10.154;2024-02-15T02:58:15;9.30;86.80
74364;DHT22;62797;49.740;10.154;2024-02-15T03:00:46;9.40;86.80
74364;DHT22;62797;49.740;10.154;2024-02-15T03:03:19;9.30;86.90
74364;DHT22;62797;49.740;10.154;2024-02-15T03:05:51;9.30;86.90
74364;DHT22;62797;49.740;10.154;2024-02-15T03:08:22;9.30;87.30
74364;DHT22;62797;49.740;10.154;2024-02-15T03:10:56;9.30;87.20
74364;DHT22;62797;49.740;10.154;2024-02-15T03:13:28;9.30;86.90
74364;DHT22;62797;49.740;10.154;2024-02-15T03:16:07;9.30;86.40
74364;DHT22;62797;49.740;10.154;2024-02-15T03:18:40;9.30;86.30
74364;DHT22;62797;49.740;10.154;2024-02-15T03:21:13;9.30;86.30
74364;DHT22;62797;49.740;10.154;2024-02-15T03:23:45;9.30;86.20
74364;DHT22;62797;49.740;10.154;2024-02-15T03:26:29;9.30;86.30
74364;DHT22;62797;49.740;10.154;2024-02-15T03:29:08;9.30;86.20
74364;DHT22;62797;49.740;10.154;2024-02-15T03:31:42;9.30;85.80
74364;DHT22;62797;49.740;10.154;2024-02-15T03:34:14;9.30;85.80
74364;DHT22;62797;49.740;10.154;2024-02-15T03:36:48;9.30;85.80
74364;DHT22;62797;49.740;10.154;2024-02-15T03:39:24;9.20;85.50
74364;DHT22;62797;49.740;10.154;2024-02-15T03:41:57;9.30;85.70
74364;DHT22;62797;49.740;10.154;2024-02-15T03:44:31;9.20;85.80
74364;DHT22;62797;49.740;10.154;2024-02-15T03:47:03;9.20;86.10
74364;DHT22;62797;49.740;10.154;2024-02-15T03:49:36;9.30;86.10
74364;DHT22;62797;49.740;10.154;2024-02-15T03:52:09;9.20;86.10
74364;DHT22;62797;49.740;10.154;2024-02-15T03:54:44;9.20;85.90
74364;DHT22;62797;49.740;10.154;2024-02-15T03:57:16;9.20;85.90
74364;DHT22;62797;49.740;10.154;2024-02-15T03:59:49;9.20;85.60
74364;DHT22;62797;49.740;10.154;2024-02-15T04:02:25;9.30;85.50
74364;DHT22;62797;49.740;10.154;2024-02-15T04:05:02;9.30;85.60
74364;DHT22;62797;49.740;10.154;2024-02-15T04:07:37;9.30;85.30
74364;DHT22;62797;49.740;10.154;2024-02-15T04:10:09;9.40;85.40
74364;DHT22;62797;49.740;10.154;2024-02-15T04:12:41;9.30;85.60
74364;DHT22;62797;49.740;10.154;2024-02-15T04:15:16;9.40;85.90
74364;DHT22;62797;49.740;10.154;2024-02-15T04:18:01;9.40;85.80
74364;DHT22;62797;49.740;10.154;2024-02-15T04:20:34;9.50;85.80
74364;DHT22;62797;49.740;10.154;2024-02-15T04:23:06;9.50;85.60
74364;DHT22;62797;49.740;10.154;2024-02-15T04:25:38;9.50;85.20
74364;DHT22;62797;49.740;10.154;2024-02-15T04:28:11;9.40;85.30
74364;DHT22;62797;49.740;10.154;2024-02-15T04:30:44;9.40;85.50
74364;DHT22;62797;49.740;10.154;2024-02-15T04:33:17;9.40;85.20
74364;DHT22;62797;49.740;10.154;2024-02-15T04:35:49;9.40;85.60
74364;DHT22;62797;49.740;10.154;2024-02-15T04:38:23;9.40;85.70
74364;DHT22;62797;49.740;10.154;2024-02-15T04:40:57;9.40;85.50
74364;DHT22;62797;49.740;10.154;2024-02-15T04:43:32;9.40;85.60
74364;DHT22;62797;49.740;10.154;2024-02-15T04:46:06;9.40;85.70
74364;DHT22;62797;49.740;10.154;2024-02-15T04:48:41;9.40;85.70
74364;DHT22;62797;49.740;10.154;2024-02-15T04:51:16;9.40;85.40
74364;DHT22;62797;49.740;10.154;2024-02-15T04:53:56;9.50;85.70
74364;DHT22;62797;49.740;10.154;2024-02-15T04:56:36;9.50;85.20
74364;DHT22;62797;49.740;10.154;2024-02-15T04:59:11;9.50;85.10
74364;DHT22;62797;49.740;10.154;2024-02-15T05:01:47;9.60;85.20
74364;DHT22;62797;49.740;10.154;2024-02-15T05:04:21;9.60;85.20
74364;DHT22;62797;49.740;10.154;2024-02-15T05:06:53;9.60;85.20
74364;DHT22;62797;49.740;10.154;2024-02-15T05:09:25;9.60;84.90
74364;DHT22;62797;49.740;10.154;2024-02-15T05:12:00;9.60;85.20
74364;DHT22;62797;49.740;10.154;2024-02-15T05:14:33;9.60;85.10
74364;DHT22;62797;49.740;10.154;2024-02-15T05:17:11;9.60;84.70
74364;DHT22;62797;49.740;10.154;2024-02-15T05:19:44;9.60;85.10
74364;DHT22;62797;49.740;10.154;2024-02-15T05:22:17;9.50;84.80
74364;DHT22;62797;49.740;10.154;2024-02-15T05:24:51;9.40;85.30
74364;DHT22;62797;49.740;10.154;2024-02-15T05:27:24;9.40;85.90
74364;DHT22;62797;49.740;10.154;2024-02-15T05:29:56;9.40;85.20
74364;DHT22;62797;49.740;10.154;2024-02-15T05:32:35;9.40;85.00
74364;DHT22;62797;49.740;10.154;2024-02-15T05:35:15;9.30;85.20
74364;DHT22;62797;49.740;10.154;2024-02-15T05:37:47;9.30;85.70
74364;DHT22;62797;49.740;10.154;2024-02-15T05:40:19;9.30;85.90
74364;DHT22;62797;49.740;10.154;2024-02-15T05:42:55;9.30;85.50
74364;DHT22;62797;49.740;10.154;2024-02-15T05:45:28;9.30;85.50
74364;DHT22;62797;49.740;10.154;2024-02-15T05:48:08;9.30;85.50
74364;DHT22;62797;49.740;10.154;2024-02-15T05:50:41;9.30;85.60
74364;DHT22;62797;49.740;10.154;2024-02-15T05:53:13;9.30;86.10
74364;DHT22;62797;49.740;10.154;2024-02-15T05:55:45;9.30;86.20
74364;DHT22;62797;49.740;10.154;2024-02-15T05:58:17;9.30;86.20
74364;DHT22;62797;49.740;10.154;2024-02-15T06:00:49;9.30;86.10
74364;DHT22;62797;49.740;10.154;2024-02-15T06:03:22;9.30;86.20
74364;DHT22;62797;49.740;10.154;2024-02-15T06:05:58;9.40;85.80
74364;DHT22;62797;49.740;10.154;2024-02-15T06:08:30;9.30;85.40
74364;DHT22;62797;49.740;10.154;2024-02-15T06:11:03;9.30;85.80
74364;DHT22;62797;49.740;10.154;2024-02-15T06:13:36;9.30;86.00
74364;DHT22;62797;49.740;10.154;2024-02-15T06:16:08;9.30;85.90
74364;DHT22;62797;49.740;10.154;2024-02-15T06:18:47;9.40;85.40
74364;DHT22;62797;49.740;10.154;2024-02-15T06:21:27;9.30;85.40
74364;DHT22;62797;49.740;10.154;2024-02-15T06:24:06;9.30;85.60
74364;DHT22;62797;49.740;10.154;2024-02-15T06:26:39;9.30;85.50
74364;DHT22;62797;49.740;10.154;2024-02-15T06:29:11;9.20;85.10
74364;DHT22;62797;49.740;10.154;2024-02-15T06:32:02;9.30;85.30
74364;DHT22;62797;49.740;10.154;2024-02-15T06:34:53;9.20;85.40
74364;DHT22;62797;49.740;10.154;2024-02-15T06:37:44;9.20;85.40
74364;DHT22;62797;49.740;10.154;2024-02-15T06:40:35;9.20;85.90
74364;DHT22;62797;49.740;10.154;2024-02-15T06:43:08;9.20;85.50
74364;DHT22;62797;49.740;10.154;2024-02-15T06:45:40;9.20;85.40
74364;DHT22;62797;49.740;10.154;2024-02-15T06:48:17;9.20;85.40
74364;DHT22;62797;49.740;10.154;2024-02-15T06:50:49;9.20;86.10
74364;DHT22;62797;49.740;10.154;2024-02-15T06:53:21;9.30;85.60
74364;DHT22;62797;49.740;10.154;2024-02-15T06:55:53;9.20;85.70
74364;DHT22;62797;49.740;10.154;2024-02-15T06:58:25;9.20;86.10
74364;DHT22;62797;49.740;10.154;2024-02-15T07:00:57;9.30;85.90
74364;DHT22;62797;49.740;10.154;2024-02-15T07:03:29;9.40;85.70
74364;DHT22;62797;49.740;10.154;2024-02-15T07:06:02;9.30;85.30
74364;DHT22;62797;49.740;10.154;2024-02-15T07:08:35;9.30;86.00
74364;DHT22;62797;49.740;10.154;2024-02-15T07:11:08;9.30;85.80
74364;DHT22;62797;49.740;10.154;2024-02-15T07:13:41;9.30;86.40
74364;DHT22;62797;49.740;10.154;2024-02-15T07:16:14;9.30;85.80
74364;DHT22;62797;49.740;10.154;2024-02-15T07:18:53;9.40;86.30
74364;DHT22;62797;49.740;10.154;2024-02-15T07:21:25;9.50;86.60
74364;DHT22;62797;49.740;10.154;2024-02-15T07:24:01;9.50;86.20
74364;DHT22;62797;49.740;10.154;2024-02-15T07:26:33;9.60;86.30
74364;DHT22;62797;49.740;10.154;2024-02-15T07:29:07;9.60;86.00
74364;DHT22;62797;49.740;10.154;2024-02-15T07:31:40;9.70;86.00
74364;DHT22;62797;49.740;10.154;2024-02-15T07:34:13;9.70;86.20
74364;DHT22;62797;49.740;10.154;2024-02-15T07:36:45;9.80;86.50
74364;DHT22;62797;49.740;10.154;2024-02-15T07:39:19;9.80;86.10
74364;DHT22;62797;49.740;10.154;2024-02-15T07:41:57;9.90;86.10
74364;DHT22;62797;49.740;10.154;2024-02-15T07:44:32;9.90;85.60
74364;DHT22;62797;49.740;10.154;2024-02-15T07:47:07;9.90;86.10
74364;DHT22;62797;49.740;10.154;2024-02-15T07:49:39;10.00;86.30
74364;DHT22;62797;49.740;10.154;2024-02-15T07:52:11;10.10;86.20
74364;DHT22;62797;49.740;10.154;2024-02-15T07:54:43;10.20;86.30
74364;DHT22;62797;49.740;10.154;2024-02-15T07:57:15;10.30;86.20
74364;DHT22;62797;49.740;10.154;2024-02-15T07:59:48;10.40;86.10
74364;DHT22;62797;49.740;10.154;2024-02-15T08:02:21;10.50;86.10
74364;DHT22;62797;49.740;10.154;2024-02-15T08:04:54;10.50;85.80
74364;DHT22;62797;49.740;10.154;2024-02-15T08:07:27;10.60;85.70
74364;DHT22;62797;49.740;10.154;2024-02-15T08:10:05;10.70;85.80
74364;DHT22;62797;49.740;10.154;2024-02-15T08:12:41;10.80;85.90
74364;DHT22;62797;49.740;10.154;2024-02-15T08:15:13;10.90;85.60
74364;DHT22;62797;49.740;10.154;2024-02-15T08:17:52;11.00;85.00
74364;DHT22;62797;49.740;10.154;2024-02-15T08:20:25;11.10;84.40
74364;DHT22;62797;49.740;10.154;2024-02-15T08:22:58;11.10;83.70
74364;DHT22;62797;49.740;10.154;2024-02-15T08:25:31;11.10;83.20
74364;DHT22;62797;49.740;10.154;2024-02-15T08:28:03;11.20;83.30
74364;DHT22;62797;49.740;10.154;2024-02-15T08:30:37;11.20;83.30
74364;DHT22;62797;49.740;10.154;2024-02-15T08:33:10;11.30;83.40
74364;DHT22;62797;49.740;10.154;2024-02-15T08:35:43;11.30;83.10
74364;DHT22;62797;49.740;10.154;2024-02-15T08:38:16;11.30;82.50
74364;DHT22;62797;49.740;10.154;2024-02-15T08:40:49;11.30;82.60
74364;DHT22;62797;49.740;10.154;2024-02-15T08:43:21;11.20;81.40
74364;DHT22;62797;49.740;10.154;2024-02-15T08:45:53;11.20;82.00
74364;DHT22;62797;49.740;10.154;2024-02-15T08:48:25;11.20;81.50
74364;DHT22;62797;49.740;10.154;2024-02-15T08:50:58;11.30;82.00
74364;DHT22;62797;49.740;10.154;2024-02-15T08:53:32;11.30;81.90
74364;DHT22;62797;49.740;10.154;2024-02-15T08:56:05;11.30;82.00
74364;DHT22;62797;49.740;10.154;2024-02-15T08:58:38;11.30;81.10
74364;DHT22;62797;49.740;10.154;2024-02-15T09:01:12;11.30;81.40
74364;DHT22;62797;49.740;10.154;2024-02-15T09:03:45;11.40;81.50
74364;DHT22;62797;49.740;10.154;2024-02-15T09:06:17;11.40;80.40
74364;DHT22;62797;49.740;10.154;2024-02-15T09:08:49;11.50;80.60
74364;DHT22;62797;49.740;10.154;2024-02-15T09:11:21;11.50;79.40
74364;DHT22;62797;49.740;10.154;2024-02-15T09:13:55;11.50;80.20
74364;DHT22;62797;49.740;10.154;2024-02-15T09:16:27;11.50;79.70
74364;DHT22;62797;49.740;10.154;2024-02-15T09:18:59;11.50;80.40
74364;DHT22;62797;49.740;10.154;2024-02-15T09:21:34;11.50;80.40
74364;DHT22;62797;49.740;10.154;2024-02-15T09:24:06;11.60;80.50
74364;DHT22;62797;49.740;10.154;2024-02-15T09:26:38;11.70;81.60
74364;DHT22;62797;49.740;10.154;2024-02-15T09:29:10;11.70;80.80
74364;DHT22;62797;49.740;10.154;2024-02-15T09:31:43;11.80;81.30
74364;DHT22;62797;49.740;10.154;2024-02-15T09:34:15;11.90;80.30
74364;DHT22;62797;49.740;10.154;2024-02-15T09:36:47;12.00;80.30
74364;DHT22;62797;49.740;10.154;2024-02-15T09:39:19;12.10;79.90
74364;DHT22;62797;49.740;10.154;2024-02-15T09:41:51;12.20;79.40
74364;DHT22;62797;49.740;10.154;2024-02-15T09:44:30;12.20;78.90
74364;DHT22;62797;49.740;10.154;2024-02-15T09:47:03;12.30;78.00
74364;DHT22;62797;49.740;10.154;2024-02-15T09:49:40;12.30;77.90
74364;DHT22;62797;49.740;10.154;2024-02-15T09:52:12;12.40;76.60
74364;DHT22;62797;49.740;10.154;2024-02-15T09:54:48;12.40;74.90
74364;DHT22;62797;49.740;10.154;2024-02-15T09:57:20;12.50;74.00
74364;DHT22;62797;49.740;10.154;2024-02-15T09:59:54;12.50;73.30
74364;DHT22;62797;49.740;10.154;2024-02-15T10:02:29;12.50;74.20
74364;DHT22;62797;49.740;10.154;2024-02-15T10:05:03;12.60;74.00
74364;DHT22;62797;49.740;10.154;2024-02-15T10:07:35;12.60;75.90
74364;DHT22;62797;49.740;10.154;2024-02-15T10:10:23;12.70;74.90
74364;DHT22;62797;49.740;10.154;2024-02-15T10:12:56;12.80;73.80
74364;DHT22;62797;49.740;10.154;2024-02-15T10:15:33;12.80;73.10
74364;DHT22;62797;49.740;10.154;2024-02-15T10:18:08;13.00;72.00
74364;DHT22;62797;49.740;10.154;2024-02-15T10:20:57;13.10;72.00
74364;DHT22;62797;49.740;10.154;2024-02-15T10:23:30;13.20;71.10
74364;DHT22;62797;49.740;10.154;2024-02-15T10:26:19;13.40;69.60
74364;DHT22;62797;49.740;10.154;2024-02-15T10:29:05;13.50;66.80
74364;DHT22;62797;49.740;10.154;2024-02-15T10:31:55;13.50;66.20
74364;DHT22;62797;49.740;10.154;2024-02-15T10:34:28;13.60;65.90
74364;DHT22;62797;49.740;10.154;2024-02-15T10:37:16;13.70;66.20
74364;DHT22;62797;49.740;10.154;2024-02-15T10:40:05;13.90;64.90
74364;DHT22;62797;49.740;10.154;2024-02-15T10:42:41;14.00;64.00
74364;DHT22;62797;49.740;10.154;2024-02-15T10:45:15;13.90;63.20
74364;DHT22;62797;49.740;10.154;2024-02-15T10:47:50;14.00;62.70
74364;DHT22;62797;49.740;10.154;2024-02-15T10:50:26;14.00;64.50
74364;DHT22;62797;49.740;10.154;2024-02-15T10:52:58;14.10;63.50
74364;DHT22;62797;49.740;10.154;2024-02-15T10:55:35;14.30;63.70
74364;DHT22;62797;49.740;10.154;2024-02-15T10:58:12;14.40;63.50
74364;DHT22;62797;49.740;10.154;2024-02-15T11:00:50;14.60;62.80
74364;DHT22;62797;49.740;10.154;2024-02-15T11:03:30;14.80;61.20
74364;DHT22;62797;49.740;10.154;2024-02-15T11:06:05;14.90;60.50
74364;DHT22;62797;49.740;10.154;2024-02-15T11:08:39;15.00;61.40
74364;DHT22;62797;49.740;10.154;2024-02-15T11:11:12;15.10;59.80
74364;DHT22;62797;49.740;10.154;2024-02-15T11:13:49;15.20;60.30
74364;DHT22;62797;49.740;10.154;2024-02-15T11:16:42;15.40;59.60
74364;DHT22;62797;49.740;10.154;2024-02-15T11:22:15;15.60;54.90
74364;DHT22;62797;49.740;10.154;2024-02-15T11:24:52;15.40;56.80
74364;DHT22;62797;49.740;10.154;2024-02-15T11:30:00;15.70;57.10
74364;DHT22;62797;49.740;10.154;2024-02-15T11:32:47;15.80;55.50
74364;DHT22;62797;49.740;10.154;2024-02-15T11:35:22;15.90;55.90
74364;DHT22;62797;49.740;10.154;2024-02-15T11:37:59;16.10;56.70
74364;DHT22;62797;49.740;10.154;2024-02-15T11:46:12;16.60;50.80
74364;DHT22;62797;49.740;10.154;2024-02-15T11:48:51;16.50;51.00
74364;DHT22;62797;49.740;10.154;2024-02-15T11:54:11;16.60;49.20
74364;DHT22;62797;49.740;10.154;2024-02-15T11:59:19;16.70;49.30
74364;DHT22;62797;49.740;10.154;2024-02-15T12:02:03;16.80;46.50
74364;DHT22;62797;49.740;10.154;2024-02-15T12:04:54;16.80;45.20
74364;DHT22;62797;49.740;10.154;2024-02-15T12:07:45;16.80;46.30
74364;DHT22;62797;49.740;10.154;2024-02-15T12:10:36;16.80;47.60
74364;DHT22;62797;49.740;10.154;2024-02-15T12:13:27;16.90;46.30
74364;DHT22;62797;49.740;10.154;2024-02-15T12:16:38;17.00;47.40
74364;DHT22;62797;49.740;10.154;2024-02-15T12:19:29;17.30;47.90
74364;DHT22;62797;49.740;10.154;2024-02-15T12:22:02;17.50;45.60
74364;DHT22;62797;49.740;10.154;2024-02-15T12:24:37;17.70;43.20
74364;DHT22;62797;49.740;10.154;2024-02-15T12:27:09;17.80;42.80
74364;DHT22;62797;49.740;10.154;2024-02-15T12:29:41;17.90;40.20
74364;DHT22;62797;49.740;10.154;2024-02-15T12:32:20;17.90;41.80
74364;DHT22;62797;49.740;10.154;2024-02-15T12:35:10;18.10;38.30
74364;DHT22;62797;49.740;10.154;2024-02-15T12:38:03;18.10;39.70
74364;DHT22;62797;49.740;10.154;2024-02-15T12:40:40;17.90;37.00
74364;DHT22;62797;49.740;10.154;2024-02-15T12:43:18;17.70;39.50
74364;DHT22;62797;49.740;10.154;2024-02-15T12:45:50;17.60;39.90
74364;DHT22;62797;49.740;10.154;2024-02-15T12:48:22;17.40;39.00
74364;DHT22;62797;49.740;10.154;2024-02-15T12:50:54;17.40;39.10
74364;DHT22;62797;49.740;10.154;2024-02-15T12:53:27;17.30;39.60
74364;DHT22;62797;49.740;10.154;2024-02-15T12:56:00;17.40;38.20
74364;DHT22;62797;49.740;10.154;2024-02-15T12:58:32;17.40;37.80
74364;DHT22;62797;49.740;10.154;2024-02-15T13:01:04;17.50;37.70
74364;DHT22;62797;49.740;10.154;2024-02-15T13:03:36;17.80;39.80
74364;DHT22;62797;49.740;10.154;2024-02-15T13:06:08;18.10;38.00
74364;DHT22;62797;49.740;10.154;2024-02-15T13:08:40;18.50;34.50
74364;DHT22;62797;49.740;10.154;2024-02-15T13:11:12;18.50;35.20
74364;DHT22;62797;49.740;10.154;2024-02-15T13:13:45;18.60;34.70
74364;DHT22;62797;49.740;10.154;2024-02-15T13:16:17;18.50;33.50
74364;DHT22;62797;49.740;10.154;2024-02-15T13:18:57;18.50;32.80
74364;DHT22;62797;49.740;10.154;2024-02-15T13:21:31;18.40;31.20
74364;DHT22;62797;49.740;10.154;2024-02-15T13:24:03;18.20;32.50
74364;DHT22;62797;49.740;10.154;2024-02-15T13:26:37;17.90;30.60
74364;DHT22;62797;49.740;10.154;2024-02-15T13:29:09;17.80;33.30
74364;DHT22;62797;49.740;10.154;2024-02-15T13:31:42;17.90;31.30
74364;DHT22;62797;49.740;10.154;2024-02-15T13:34:15;17.70;32.70
74364;DHT22;62797;49.740;10.154;2024-02-15T13:36:49;17.80;33.90
74364;DHT22;62797;49.740;10.154;2024-02-15T13:39:22;18.00;33.10
74364;DHT22;62797;49.740;10.154;2024-02-15T13:41:55;18.20;29.70
74364;DHT22;62797;49.740;10.154;2024-02-15T13:44:27;18.20;29.00
74364;DHT22;62797;49.740;10.154;2024-02-15T13:47:00;18.10;28.50
74364;DHT22;62797;49.740;10.154;2024-02-15T13:49:39;18.00;28.60
74364;DHT22;62797;49.740;10.154;2024-02-15T13:52:11;18.00;29.30
74364;DHT22;62797;49.740;10.154;2024-02-15T13:54:43;18.10;27.90
74364;DHT22;62797;49.740;10.154;2024-02-15T13:57:15;18.00;26.60
74364;DHT22;62797;49.740;10.154;2024-02-15T13:59:49;17.80;27.30
74364;DHT22;62797;49.740;10.154;2024-02-15T14:02:21;17.70;27.50
74364;DHT22;62797;49.740;10.154;2024-02-15T14:04:53;17.60;30.20
74364;DHT22;62797;49.740;10.154;2024-02-15T14:07:25;17.60;29.70
74364;DHT22;62797;49.740;10.154;2024-02-15T14:09:57;17.60;31.10
74364;DHT22;62797;49.740;10.154;2024-02-15T14:12:30;17.70;30.00
74364;DHT22;62797;49.740;10.154;2024-02-15T14:15:02;17.70;29.60
74364;DHT22;62797;49.740;10.154;2024-02-15T14:17:35;17.70;30.60
74364;DHT22;62797;49.740;10.154;2024-02-15T14:20:07;17.60;32.20
74364;DHT22;62797;49.740;10.154;2024-02-15T14:22:47;17.60;30.00
74364;DHT22;62797;49.740;10.154;2024-02-15T14:25:27;17.30;31.20
74364;DHT22;62797;49.740;10.154;2024-02-15T14:27:59;17.30;32.60
74364;DHT22;62797;49.740;10.154;2024-02-15T14:30:32;17.30;31.80
74364;DHT22;62797;49.740;10.154;2024-02-15T14:33:23;17.20;32.90
74364;DHT22;62797;49.740;10.154;2024-02-15T14:35:56;17.00;33.30
74364;DHT22;62797;49.740;10.154;2024-02-15T14:38:28;16.80;31.10
74364;DHT22;62797;49.740;10.154;2024-02-15T14:41:01;16.70;31.20
74364;DHT22;62797;49.740;10.154;2024-02-15T14:43:36;16.60;31.60
74364;DHT22;62797;49.740;10.154;2024-02-15T14:46:09;16.50;33.70
74364;DHT22;62797;49.740;10.154;2024-02-15T14:48:42;16.30;34.30
74364;DHT22;62797;49.740;10.154;2024-02-15T14:51:16;16.30;34.10
74364;DHT22;62797;49.740;10.154;2024-02-15T14:53:51;16.20;34.70
74364;DHT22;62797;49.740;10.154;2024-02-15T14:56:23;16.10;35.50
74364;DHT22;62797;49.740;10.154;2024-02-15T14:58:56;16.10;35.00
74364;DHT22;62797;49.740;10.154;2024-02-15T15:01:28;16.10;35.50
74364;DHT22;62797;49.740;10.154;2024-02-15T15:04:01;16.00;35.10
74364;DHT22;62797;49.740;10.154;2024-02-15T15:06:38;16.00;33.30
74364;DHT22;62797;49.740;10.154;2024-02-15T15:09:29;16.00;34.30
74364;DHT22;62797;49.740;10.154;2024-02-15T15:12:20;15.90;36.10
74364;DHT22;62797;49.740;10.154;2024-02-15T15:15:11;15.90;36.30
74364;DHT22;62797;49.740;10.154;2024-02-15T15:17:54;15.90;37.50
74364;DHT22;62797;49.740;10.154;2024-02-15T15:20:27;15.90;37.90
74364;DHT22;62797;49.740;10.154;2024-02-15T15:22:59;15.80;38.00
74364;DHT22;62797;49.740;10.154;2024-02-15T15:25:33;15.80;38.80
74364;DHT22;62797;49.740;10.154;2024-02-15T15:28:06;15.70;37.90
74364;DHT22;62797;49.740;10.154;2024-02-15T15:30:38;15.70;38.50
74364;DHT22;62797;49.740;10.154;2024-02-15T15:33:10;15.50;39.10
74364;DHT22;62797;49.740;10.154;2024-02-15T15:35:46;15.40;40.30
74364;DHT22;62797;49.740;10.154;2024-02-15T15:38:18;15.30;42.20
74364;DHT22;62797;49.740;10.154;2024-02-15T15:40:50;15.10;42.30
74364;DHT22;62797;49.740;10.154;2024-02-15T15:43:23;14.90;43.50
74364;DHT22;62797;49.740;10.154;2024-02-15T15:45:55;14.80;45.00
74364;DHT22;62797;49.740;10.154;2024-02-15T15:48:30;14.70;44.00
74364;DHT22;62797;49.740;10.154;2024-02-15T15:51:03;14.70;44.70
74364;DHT22;62797;49.740;10.154;2024-02-15T15:53:37;14.50;46.40
74364;DHT22;62797;49.740;10.154;2024-02-15T15:56:11;14.30;48.10
74364;DHT22;62797;49.740;10.154;2024-02-15T15:58:43;14.30;48.60
74364;DHT22;62797;49.740;10.154;2024-02-15T16:01:17;14.10;49.70
74364;DHT22;62797;49.740;10.154;2024-02-15T16:03:51;14.00;49.30
74364;DHT22;62797;49.740;10.154;2024-02-15T16:06:31;14.10;48.70
74364;DHT22;62797;49.740;10.154;2024-02-15T16:09:13;14.00;49.60
74364;DHT22;62797;49.740;10.154;2024-02-15T16:11:59;14.00;50.00
74364;DHT22;62797;49.740;10.154;2024-02-15T16:14:31;13.80;51.00
74364;DHT22;62797;49.740;10.154;2024-02-15T16:17:03;13.70;50.90
74364;DHT22;62797;49.740;10.154;2024-02-15T16:19:42;13.70;51.30
74364;DHT22;62797;49.740;10.154;2024-02-15T16:22:14;13.50;52.40
74364;DHT22;62797;49.740;10.154;2024-02-15T16:24:46;13.20;53.90
74364;DHT22;62797;49.740;10.154;2024-02-15T16:27:19;13.10;54.00